Temple Hill, Illinois
Current Conditions -  °F | °C
As of 9:55 PM on Wednesday 17 Dec 2014 (Local Time) from KM30 Reporting Station
Broken Clouds Broken Clouds  
Wind Chill: 35°   Ceiling: 12000
Heat Index: 35°   Visibility: 10mi
Dew Point: 30°   Wind: 0mph
Humidity: 83%   Direction: NA
Pressure: 30.28"   Gusts: NA
Location:  37.3224°N, 88.5774°W
Report Text: KM30 180355Z AUTO 00000KT 10SM SCT090 BKN120 02/M01 A3028 RMK AO2 T00171009
Loading
Personal Weather Stations






























Interactive Weather Map New forecast layout! Learn more

10-Day Weather Forecast

Advertisements
Track Severe Weather on mobile